Time;durP1;ratioP1;P1;durP2;ratioP2;P2;SDS_P1;SDS_P2;PMS_P1;PMS_P2;Temp;Humidity;BMP_temperature;BMP_pressure;BME280_temperature;BME280_humidity;BME280_pressure;Samples;Min_cycle;Max_cycle;Signal;HPM_P1;HPM_P2
2022/06/21 00:04:59;;;;;;;8.05;3.10;;;28.90;64.60;;;;;;10980887;32;20022;-73
2022/06/21 00:11:02;;;;;;;8.02;2.70;;;28.90;65.10;;;;;;10980667;32;20026;-73
2022/06/21 00:17:04;;;;;;;5.25;3.08;;;28.90;65.10;;;;;;10980499;32;20026;-67
2022/06/21 00:23:10;;;;;;;7.22;3.08;;;28.80;65.20;;;;;;10980366;32;20054;-67
2022/06/21 00:29:13;;;;;;;4.43;2.70;;;28.70;65.20;;;;;;10966693;32;20358;-67
2022/06/21 00:35:19;;;;;;;4.28;3.35;;;28.70;65.20;;;;;;10979829;32;20045;-66
2022/06/21 00:41:43;;;;;;;3.95;2.75;;;28.60;65.30;;;;;;10979278;32;20034;-67
2022/06/21 00:47:51;;;;;;;3.70;2.90;;;28.50;65.40;;;;;;10964591;32;20057;-67
2022/06/21 00:54:03;;;;;;;4.70;2.80;;;28.30;65.60;;;;;;10979638;32;20023;-73
2022/06/21 01:00:26;;;;;;;3.78;2.92;;;28.30;65.60;;;;;;10979400;32;20057;-73
2022/06/21 01:06:40;;;;;;;4.60;2.65;;;28.30;65.60;;;;;;10979357;32;20023;-66
2022/06/21 01:12:45;;;;;;;3.30;2.70;;;28.20;65.80;;;;;;10979153;32;20026;-67
2022/06/21 01:18:47;;;;;;;4.18;2.78;;;28.10;65.90;;;;;;10974992;32;20019;-67
2022/06/21 01:25:19;;;;;;;5.50;3.50;;;28.10;65.90;;;;;;10978939;32;20034;-67
2022/06/21 01:31:55;;;;;;;3.42;2.25;;;28.00;66.00;;;;;;10858908;32;20023;-67
2022/06/21 01:37:58;;;;;;;3.97;2.78;;;27.90;66.10;;;;;;10861982;32;20024;-67
2022/06/21 01:44:08;;;;;;;5.28;3.22;;;27.90;66.10;;;;;;10861740;32;20046;-67
2022/06/21 01:50:10;;;;;;;4.22;3.08;;;27.90;66.40;;;;;;10864816;32;20019;-67
2022/06/21 01:56:37;;;;;;;5.68;4.18;;;27.90;66.70;;;;;;10869708;32;20400;-67
2022/06/21 02:02:43;;;;;;;6.07;3.65;;;27.80;66.40;;;;;;10868296;32;20039;-67
2022/06/21 02:09:17;;;;;;;4.40;3.30;;;27.80;66.60;;;;;;10956815;32;20018;-67
2022/06/21 02:15:38;;;;;;;4.18;2.67;;;27.80;66.30;;;;;;10978791;32;20448;-67
2022/06/21 02:21:41;;;;;;;4.50;3.15;;;27.80;66.90;;;;;;10982959;32;20354;-67
2022/06/21 02:27:44;;;;;;;5.00;3.37;;;27.80;66.80;;;;;;10984188;32;20042;-73
2022/06/21 02:33:48;;;;;;;7.40;3.83;;;27.70;66.80;;;;;;10984228;32;20076;-73
2022/06/21 02:39:51;;;;;;;5.25;3.97;;;27.70;66.80;;;;;;10984089;32;20007;-73
2022/06/21 02:45:53;;;;;;;7.65;4.37;;;27.70;66.80;;;;;;10983528;32;20030;-73
2022/06/21 02:52:18;;;;;;;9.00;4.72;;;27.70;66.80;;;;;;10983483;32;20027;-73
2022/06/21 02:58:32;;;;;;;7.05;4.55;;;27.60;66.80;;;;;;10983303;32;20353;-73
2022/06/21 03:04:49;;;;;;;6.12;4.68;;;27.50;66.80;;;;;;10983533;32;20299;-73
2022/06/21 03:10:52;;;;;;;5.80;4.13;;;27.50;66.80;;;;;;10983043;32;20015;-73
2022/06/21 03:16:56;;;;;;;6.87;4.70;;;27.40;66.90;;;;;;10982624;32;20331;-73
2022/06/21 03:23:14;;;;;;;7.72;5.65;;;27.30;67.20;;;;;;10982359;32;20019;-73
2022/06/21 03:29:16;;;;;;;6.28;4.80;;;27.30;67.10;;;;;;10982029;32;20373;-73
2022/06/21 03:35:19;;;;;;;8.70;4.72;;;27.20;67.30;;;;;;10981809;32;20044;-73
2022/06/21 03:47:53;;;;;;;7.05;5.87;;;27.30;67.00;;;;;;10981565;32;20031;-73
2022/06/21 03:54:18;;;;;;;7.07;4.90;;;27.20;67.30;;;;;;10981305;32;20026;-73
2022/06/21 04:00:20;;;;;;;10.80;5.80;;;27.20;67.20;;;;;;10976811;32;20044;-73
2022/06/21 04:07:27;;;;;;;7.25;5.43;;;27.20;67.10;;;;;;10978610;32;20402;-73
2022/06/21 04:14:12;;;;;;;8.45;4.85;;;27.10;67.30;;;;;;10980025;32;20293;-73
2022/06/21 04:20:36;;;;;;;6.62;4.62;;;27.10;67.40;;;;;;10864696;32;20050;-67
2022/06/21 04:27:09;;;;;;;6.62;4.12;;;27.10;67.40;;;;;;10854221;27;20030;-66
2022/06/21 04:33:18;;;;;;;7.15;4.95;;;27.00;67.50;;;;;;10901060;32;20061;-67
2022/06/21 04:39:50;;;;;;;6.20;4.82;;;27.00;67.40;;;;;;10899805;32;20070;-67
2022/06/21 04:45:58;;;;;;;5.87;4.32;;;26.90;67.40;;;;;;10787295;33;20048;-73
2022/06/21 04:52:18;;;;;;;;;;;26.90;67.50;;;;;;10807024;32;20227;-73
2022/06/21 04:58:33;;;;;;;7.40;5.12;;;27.00;67.30;;;;;;10887785;32;20246;-74
2022/06/21 05:04:38;;;;;;;8.25;5.22;;;27.10;67.20;;;;;;10887600;32;20387;-74
2022/06/21 05:10:47;;;;;;;5.75;4.50;;;27.10;66.90;;;;;;10900780;32;20016;-66
2022/06/21 05:17:00;;;;;;;6.80;4.97;;;27.10;67.00;;;;;;10897113;32;20016;-66
2022/06/21 05:23:07;;;;;;;6.22;4.82;;;27.20;66.90;;;;;;11018629;32;20026;-66
2022/06/21 05:29:34;;;;;;;8.18;6.03;;;27.20;66.80;;;;;;11058248;32;20037;-66
2022/06/21 05:35:37;;;;;;;12.57;5.35;;;27.30;66.50;;;;;;11060258;32;20013;-66
2022/06/21 05:41:44;;;;;;;6.57;5.50;;;27.30;66.30;;;;;;11059238;32;20014;-67
2022/06/21 05:47:52;;;;;;;;;;;27.30;66.10;;;;;;11062673;32;20041;-66
2022/06/21 05:53:59;;;;;;;7.18;3.58;;;27.50;66.00;;;;;;11062156;32;19921;-66
2022/06/21 06:00:05;;;;;;;5.77;4.07;;;27.70;65.70;;;;;;11054735;32;20030;-74
2022/06/21 06:06:13;;;;;;;6.18;4.70;;;27.90;65.50;;;;;;11023123;32;20053;-73
2022/06/21 06:12:21;;;;;;;8.07;4.78;;;28.10;65.20;;;;;;11009527;32;20371;-74
2022/06/21 06:18:47;;;;;;;8.60;4.80;;;28.30;65.20;;;;;;11022836;32;20052;-73
2022/06/21 06:25:26;;;;;;;6.93;4.53;;;28.30;65.40;;;;;;11008909;32;20038;-73
2022/06/21 06:31:50;;;;;;;7.05;4.85;;;28.50;65.00;;;;;;10977219;32;20049;-73
2022/06/21 06:37:53;;;;;;;4.53;3.12;;;28.60;64.80;;;;;;11048943;32;20042;-73
2022/06/21 06:44:02;;;;;;;7.00;3.75;;;28.70;64.70;;;;;;11060420;32;20018;-73
2022/06/21 06:50:10;;;;;;;3.72;2.40;;;28.80;64.50;;;;;;11060207;32;20017;-73
2022/06/21 06:56:24;;;;;;;8.60;3.00;;;28.90;64.10;;;;;;11059791;32;20048;-73
2022/06/21 07:02:37;;;;;;;4.70;3.03;;;29.00;64.00;;;;;;11059523;32;20064;-73
2022/06/21 07:08:48;;;;;;;8.43;3.78;;;29.20;63.50;;;;;;11059406;32;20013;-73
2022/06/21 07:14:52;;;;;;;6.75;3.97;;;29.30;63.20;;;;;;11058378;32;20021;-73
2022/06/21 07:21:09;;;;;;;4.32;2.83;;;29.30;62.90;;;;;;11059022;32;20317;-73
2022/06/21 07:27:14;;;;;;;;;;;29.20;62.80;;;;;;11058779;32;20033;-73
2022/06/21 07:33:32;;;;;;;4.62;3.12;;;29.30;62.80;;;;;;11058516;32;20191;-72
2022/06/21 07:40:02;;;;;;;5.47;3.45;;;29.40;61.90;;;;;;11058388;32;20013;-72
2022/06/21 07:46:07;;;;;;;4.43;2.87;;;29.40;61.60;;;;;;11057965;32;20033;-73
2022/06/21 07:52:20;;;;;;;4.57;3.35;;;29.40;61.60;;;;;;11057663;32;20049;-72
2022/06/21 07:58:34;;;;;;;6.22;4.15;;;29.50;61.40;;;;;;11057546;32;20053;-73
2022/06/21 08:11:32;;;;;;;9.50;4.90;;;29.80;60.50;;;;;;11057450;32;20040;-72
2022/06/21 08:18:03;;;;;;;8.65;4.43;;;29.80;59.50;;;;;;11043348;32;20022;-72
2022/06/21 08:24:22;;;;;;;7.65;3.83;;;29.90;59.30;;;;;;11056838;32;20060;-73
2022/06/21 08:31:04;;;;;;;3.95;3.42;;;30.10;59.00;;;;;;11056701;32;20040;-67
2022/06/21 08:37:21;;;;;;;5.60;3.87;;;30.20;58.40;;;;;;11056431;32;20389;-65
2022/06/21 08:43:43;;;;;;;4.20;3.47;;;30.30;57.80;;;;;;11056422;32;20337;-65
2022/06/21 08:50:12;;;;;;;7.07;4.47;;;30.40;57.50;;;;;;11056206;32;20029;-65
2022/06/21 08:56:22;;;;;;;5.53;3.67;;;30.50;57.50;;;;;;11056259;32;20018;-65
2022/06/21 09:02:42;;;;;;;6.60;4.25;;;30.70;57.30;;;;;;11061065;32;20025;-65
2022/06/21 09:09:07;;;;;;;4.87;3.65;;;30.80;56.80;;;;;;11063787;32;20052;-68
2022/06/21 09:15:12;;;;;;;11.63;3.55;;;30.90;56.70;;;;;;11063672;32;20393;-67
2022/06/21 09:21:58;;;;;;;11.60;4.57;;;31.00;56.30;;;;;;11049966;32;20019;-66
2022/06/21 09:28:28;;;;;;;5.82;3.70;;;31.20;56.00;;;;;;10867983;32;20058;-74
2022/06/21 09:35:12;;;;;;;6.00;3.67;;;31.40;55.70;;;;;;10869990;32;20031;-72
2022/06/21 09:41:32;;;;;;;5.30;3.75;;;31.50;55.20;;;;;;10869772;32;20054;-73
2022/06/21 09:48:02;;;;;;;14.32;5.18;;;31.70;55.10;;;;;;10866860;32;20062;-73
2022/06/21 09:54:37;;;;;;;5.37;3.50;;;31.80;54.60;;;;;;10864779;32;20043;-68
2022/06/21 10:00:55;;;;;;;5.65;4.32;;;31.80;54.10;;;;;;10927624;32;20017;-67
2022/06/21 10:07:28;;;;;;;6.75;4.80;;;31.80;54.30;;;;;;11061893;32;20419;-66
2022/06/21 10:13:54;;;;;;;7.72;5.55;;;31.90;53.70;;;;;;11047842;32;20040;-67
2022/06/21 10:20:30;;;;;;;6.50;5.12;;;31.90;52.90;;;;;;11057955;32;20030;-66
2022/06/21 10:26:54;;;;;;;6.12;4.30;;;32.00;52.90;;;;;;11056651;32;20038;-66
2022/06/21 10:33:56;;;;;;;12.27;6.12;;;32.20;53.00;;;;;;11060897;32;20021;-67
2022/06/21 10:40:35;;;;;;;6.40;4.50;;;32.30;52.30;;;;;;11060602;32;20021;-67
2022/06/21 10:46:49;;;;;;;9.88;6.00;;;32.30;52.10;;;;;;11060321;32;20042;-70
2022/06/21 10:53:40;;;;;;;5.97;4.95;;;32.40;52.00;;;;;;11058278;32;20025;-73
2022/06/21 11:07:05;;;;;;;7.00;4.97;;;33.00;52.00;;;;;;10866901;32;20058;-74
2022/06/21 11:13:14;;;;;;;7.35;5.12;;;33.10;51.70;;;;;;10866862;32;20443;-73
2022/06/21 11:19:48;;;;;;;9.07;5.30;;;33.10;51.50;;;;;;10854294;32;20046;-74
2022/06/21 11:26:08;;;;;;;11.25;5.22;;;33.00;51.30;;;;;;10865571;32;20035;-73
2022/06/21 11:32:36;;;;;;;11.68;6.05;;;32.90;51.10;;;;;;10973849;32;20329;-72
2022/06/21 11:38:59;;;;;;;9.98;6.28;;;33.10;50.80;;;;;;11058450;32;20040;-73
2022/06/21 11:45:19;;;;;;;7.32;4.90;;;33.30;50.20;;;;;;11058044;32;20022;-73
2022/06/21 11:51:24;;;;;;;6.25;4.50;;;33.30;49.90;;;;;;11057957;32;20025;-73
2022/06/21 11:57:44;;;;;;;6.70;5.47;;;33.60;49.50;;;;;;11057914;32;20018;-73
2022/06/21 12:03:56;;;;;;;7.65;5.90;;;33.90;49.30;;;;;;11058005;32;20412;-72
2022/06/21 12:10:14;;;;;;;10.50;3.85;;;34.10;49.10;;;;;;11044088;32;20018;-73
2022/06/21 12:16:38;;;;;;;5.40;3.80;;;34.20;49.00;;;;;;11056885;32;20022;-73
2022/06/21 12:22:48;;;;;;;8.30;4.87;;;34.30;48.30;;;;;;11056934;32;20328;-73
2022/06/21 12:29:12;;;;;;;7.35;5.37;;;34.50;48.10;;;;;;10987845;26;20049;-72
2022/06/21 12:35:21;;;;;;;8.23;4.22;;;34.80;47.50;;;;;;10904241;32;20027;-72
2022/06/21 12:42:30;;;;;;;7.15;5.12;;;34.80;47.30;;;;;;10904661;32;20015;-73
2022/06/21 12:49:01;;;;;;;8.63;4.32;;;35.10;47.00;;;;;;10753829;33;20028;-74
2022/06/21 12:55:20;;;;;;;7.12;3.95;;;35.40;46.40;;;;;;10753083;33;20397;-72
2022/06/21 13:01:30;;;;;;;16.40;4.50;;;35.50;44.90;;;;;;10753293;33;20310;-72
2022/06/21 13:07:50;;;;;;;5.80;3.90;;;35.40;45.30;;;;;;10751686;33;20063;-73
2022/06/21 13:14:01;;;;;;;8.43;5.22;;;35.50;45.50;;;;;;10752726;33;20155;-72
2022/06/21 13:20:09;;;;;;;6.10;4.43;;;35.60;46.20;;;;;;10770704;32;20031;-72
2022/06/21 13:26:24;;;;;;;12.85;6.40;;;35.60;46.40;;;;;;10903712;32;20031;-73
2022/06/21 13:32:32;;;;;;;6.30;4.68;;;35.70;46.20;;;;;;10903810;32;20417;-68
2022/06/21 13:38:45;;;;;;;10.32;4.90;;;35.60;46.10;;;;;;10903693;32;20041;-69
2022/06/21 13:45:29;;;;;;;9.95;6.03;;;35.50;46.40;;;;;;10903992;32;20016;-68
2022/06/21 13:51:51;;;;;;;8.00;4.97;;;35.40;46.50;;;;;;10762629;33;20128;-69
2022/06/21 13:58:17;;;;;;;7.78;4.50;;;35.50;46.80;;;;;;10762184;33;20029;-68
2022/06/21 14:04:19;;;;;;;;;;;35.50;46.70;;;;;;10758227;33;20345;-67
2022/06/21 14:10:40;;;;;;;6.93;5.10;;;35.60;46.80;;;;;;10757788;33;20228;-68
2022/06/21 14:17:02;;;;;;;7.18;3.95;;;35.70;46.70;;;;;;10757494;33;20051;-73
2022/06/21 14:24:13;;;;;;;19.58;5.00;;;35.70;46.60;;;;;;10757014;33;20032;-74
2022/06/21 14:30:26;;;;;;;9.25;5.10;;;35.40;46.80;;;;;;10781884;32;20328;-73
2022/06/21 14:36:40;;;;;;;14.63;6.05;;;35.30;47.70;;;;;;10793653;32;20056;-74
2022/06/21 14:42:50;;;;;;;10.10;5.35;;;35.20;48.60;;;;;;10793287;32;20062;-73
2022/06/21 14:49:26;;;;;;;6.35;4.15;;;35.10;48.80;;;;;;10793001;32;20298;-73
2022/06/21 14:55:51;;;;;;;10.07;4.57;;;34.90;48.50;;;;;;10770661;33;20040;-73
2022/06/21 15:02:32;;;;;;;8.30;4.12;;;35.00;48.00;;;;;;10761342;32;20032;-73
2022/06/21 15:08:42;;;;;;;4.72;4.15;;;34.80;48.30;;;;;;10793144;32;20028;-73
2022/06/21 15:14:50;;;;;;;7.00;4.18;;;34.80;48.20;;;;;;10792144;33;20055;-73
2022/06/21 15:21:08;;;;;;;5.30;4.00;;;34.80;48.20;;;;;;10791969;33;20385;-73
2022/06/21 15:27:21;;;;;;;5.10;4.10;;;34.70;48.50;;;;;;10791491;33;20388;-73
2022/06/21 15:34:10;;;;;;;9.85;4.55;;;34.70;48.40;;;;;;10791292;33;20028;-73
2022/06/21 15:40:18;;;;;;;12.43;4.82;;;34.70;48.30;;;;;;10683331;33;20064;-73
2022/06/21 15:46:31;;;;;;;6.82;5.10;;;34.60;49.10;;;;;;10752474;33;20299;-74
2022/06/21 15:52:42;;;;;;;9.05;4.72;;;34.50;49.20;;;;;;10781481;33;20062;-73
2022/06/21 15:59:26;;;;;;;4.87;3.53;;;34.50;48.90;;;;;;10790384;33;20028;-74
2022/06/21 16:05:47;;;;;;;7.45;4.37;;;34.50;49.00;;;;;;10775096;33;20067;-68
2022/06/21 16:12:08;;;;;;;6.62;4.32;;;34.60;48.80;;;;;;10789419;33;20349;-69
2022/06/21 16:18:18;;;;;;;10.88;4.37;;;34.60;49.10;;;;;;10905129;32;20031;-68
2022/06/21 16:24:24;;;;;;;10.15;3.97;;;34.50;49.60;;;;;;10903542;32;20027;-68
2022/06/21 16:30:50;;;;;;;7.57;4.20;;;34.50;48.90;;;;;;10891588;32;20032;-68
2022/06/21 16:37:21;;;;;;;6.87;3.35;;;34.50;48.70;;;;;;10904933;32;20323;-68
2022/06/21 16:43:36;;;;;;;9.07;4.30;;;34.40;49.30;;;;;;10904675;32;20027;-69
2022/06/21 16:49:54;;;;;;;12.37;4.12;;;34.40;49.00;;;;;;10904136;32;20027;-68
2022/06/21 16:56:00;;;;;;;7.65;3.65;;;34.30;48.80;;;;;;10899870;32;20392;-68
2022/06/21 17:02:05;;;;;;;4.87;3.37;;;34.40;48.70;;;;;;10902683;32;20029;-69
2022/06/21 17:08:07;;;;;;;6.55;3.50;;;34.30;49.40;;;;;;10903739;32;20031;-69
2022/06/21 17:14:56;;;;;;;4.28;3.10;;;34.10;49.60;;;;;;10903617;32;20027;-68
2022/06/21 17:21:46;;;;;;;9.75;3.97;;;34.10;49.30;;;;;;10892362;32;20388;-68
2022/06/21 17:27:57;;;;;;;;;;;34.00;49.90;;;;;;10794843;33;20074;-68
2022/06/21 17:34:26;;;;;;;11.30;3.83;;;33.90;50.00;;;;;;10783696;33;19981;-68
2022/06/21 17:41:02;;;;;;;6.00;3.45;;;33.70;50.40;;;;;;10795502;33;20024;-68
2022/06/21 17:47:40;;;;;;;4.12;3.08;;;33.60;51.10;;;;;;10792843;33;20062;-68
2022/06/21 17:53:54;;;;;;;4.03;2.75;;;33.40;51.60;;;;;;10663672;33;20045;-68
2022/06/21 17:59:56;;;;;;;6.78;4.30;;;33.30;51.60;;;;;;10685595;33;20029;-68
2022/06/21 18:06:04;;;;;;;4.18;2.95;;;33.20;52.50;;;;;;10685429;33;20091;-68
2022/06/21 18:12:39;;;;;;;6.60;3.83;;;32.90;53.30;;;;;;10681401;33;20057;-68
2022/06/21 18:18:56;;;;;;;7.10;3.70;;;32.80;53.70;;;;;;10701746;33;20043;-67
2022/06/21 18:25:20;;;;;;;12.00;3.60;;;32.60;53.80;;;;;;10720737;33;20036;-68
2022/06/21 18:31:31;;;;;;;10.95;3.80;;;32.50;54.40;;;;;;10872524;32;20027;-68
2022/06/21 18:38:03;;;;;;;5.87;3.90;;;32.30;54.90;;;;;;10907341;32;20359;-68
2022/06/21 18:44:14;;;;;;;4.78;3.30;;;32.30;55.10;;;;;;10757370;33;20029;-68
2022/06/21 18:51:16;;;;;;;8.55;2.97;;;32.10;55.90;;;;;;10756629;33;20349;-70
2022/06/21 18:57:33;;;;;;;5.45;3.30;;;32.00;56.20;;;;;;10752404;33;20055;-68
2022/06/21 19:03:46;;;;;;;7.37;3.75;;;31.90;56.50;;;;;;10756273;33;20032;-68
2022/06/21 19:10:19;;;;;;;6.45;2.70;;;31.90;56.40;;;;;;10755828;33;20040;-68
2022/06/21 19:16:52;;;;;;;4.25;2.85;;;31.90;56.30;;;;;;10772490;32;20023;-68
2022/06/21 19:23:43;;;;;;;6.55;2.85;;;31.80;56.70;;;;;;10907459;32;20465;-68
2022/06/21 19:30:03;;;;;;;8.35;2.78;;;31.60;57.20;;;;;;10904627;32;20019;-68
2022/06/21 19:36:16;;;;;;;3.40;2.58;;;31.60;57.40;;;;;;10908142;32;20049;-68
2022/06/21 19:42:30;;;;;;;14.32;3.85;;;31.60;57.40;;;;;;10906446;32;20027;-68
2022/06/21 19:48:54;;;;;;;2.62;2.30;;;31.60;57.70;;;;;;10903888;32;20358;-68
2022/06/21 19:55:42;;;;;;;4.20;2.70;;;31.50;57.60;;;;;;10893054;32;20132;-68
2022/06/21 20:02:35;;;;;;;3.35;2.10;;;31.40;57.80;;;;;;10902881;32;20031;-68
2022/06/21 20:08:37;;;;;;;3.70;2.62;;;31.30;58.00;;;;;;10750953;33;20047;-68
2022/06/21 20:14:46;;;;;;;2.78;2.20;;;31.30;58.10;;;;;;10753863;33;20360;-68
2022/06/21 20:21:16;;;;;;;4.60;2.15;;;31.30;58.00;;;;;;10753774;33;20028;-68
2022/06/21 20:27:33;;;;;;;4.93;2.25;;;31.30;58.10;;;;;;10402526;27;11956588;-68
2022/06/21 20:33:50;;;;;;;4.22;2.92;;;31.30;58.30;;;;;;10754191;33;20058;-68
2022/06/21 20:40:02;;;;;;;3.53;2.33;;;31.30;58.80;;;;;;10761877;32;20332;-68
2022/06/21 20:46:27;;;;;;;6.53;2.58;;;31.20;59.00;;;;;;10822699;33;20044;-69
2022/06/21 20:52:32;;;;;;;3.47;2.10;;;31.10;59.60;;;;;;10823938;32;20379;-68
2022/06/21 20:58:41;;;;;;;4.53;2.40;;;30.90;60.10;;;;;;10900879;32;20407;-68
2022/06/21 21:04:47;;;;;;;4.65;2.62;;;31.00;60.10;;;;;;10904188;32;20396;-68
2022/06/21 21:10:55;;;;;;;2.92;1.87;;;30.80;61.00;;;;;;10904225;32;20055;-69
2022/06/21 21:17:03;;;;;;;2.35;1.92;;;30.80;61.00;;;;;;10902750;32;20054;-70
2022/06/21 21:23:11;;;;;;;4.35;2.72;;;30.80;61.10;;;;;;10904160;32;20041;-74
2022/06/21 21:29:14;;;;;;;3.20;2.25;;;30.80;61.20;;;;;;10903872;32;20039;-74
2022/06/21 21:35:32;;;;;;;2.75;2.22;;;30.70;61.70;;;;;;10903962;32;20299;-74
2022/06/21 21:41:48;;;;;;;3.37;1.80;;;30.70;61.30;;;;;;10890574;32;20310;-74
2022/06/21 21:47:54;;;;;;;3.40;2.42;;;30.70;61.00;;;;;;10903698;32;20015;-74
2022/06/21 21:54:05;;;;;;;3.97;2.45;;;30.60;61.20;;;;;;10903657;32;20050;-74
2022/06/21 22:00:37;;;;;;;3.08;2.08;;;30.60;61.00;;;;;;10903339;32;20057;-74
2022/06/21 22:06:56;;;;;;;2.87;2.42;;;30.60;60.80;;;;;;10904508;32;20070;-74
2022/06/21 22:13:07;;;;;;;5.82;2.58;;;30.70;60.90;;;;;;10910519;32;20042;-74
2022/06/21 22:19:40;;;;;;;4.95;3.42;;;30.60;61.00;;;;;;10909672;32;20066;-73
2022/06/21 22:25:43;;;;;;;7.75;3.85;;;30.60;61.10;;;;;;10909448;32;20058;-73
2022/06/21 22:31:55;;;;;;;3.20;2.70;;;30.20;62.60;;;;;;10909172;32;20030;-73
2022/06/21 22:38:02;;;;;;;7.62;3.40;;;30.00;62.80;;;;;;10908959;32;20031;-73
2022/06/21 22:44:09;;;;;;;7.70;3.65;;;30.00;62.70;;;;;;10908836;32;20046;-73
2022/06/21 22:50:18;;;;;;;7.12;3.75;;;30.10;62.70;;;;;;10908594;32;20066;-73
2022/06/21 22:56:24;;;;;;;5.93;3.47;;;30.10;62.60;;;;;;10895239;32;20032;-73
2022/06/21 23:02:29;;;;;;;6.15;3.78;;;30.10;62.80;;;;;;10908198;32;20054;-73
2022/06/21 23:08:39;;;;;;;6.93;3.45;;;30.10;62.80;;;;;;10908024;32;20023;-73
2022/06/21 23:14:41;;;;;;;6.32;3.17;;;30.00;62.90;;;;;;10907657;32;20046;-73
2022/06/21 23:20:52;;;;;;;5.18;3.72;;;29.80;64.00;;;;;;10906865;32;20057;-73
2022/06/21 23:26:57;;;;;;;5.30;4.10;;;29.80;64.50;;;;;;10907317;32;20049;-73
2022/06/21 23:33:12;;;;;;;7.32;3.97;;;29.70;65.10;;;;;;10907104;32;20085;-73
2022/06/21 23:39:14;;;;;;;5.40;4.07;;;29.60;65.70;;;;;;10906818;32;20058;-73
2022/06/21 23:45:30;;;;;;;7.32;5.62;;;29.60;66.10;;;;;;10906494;32;20035;-72
2022/06/21 23:51:38;;;;;;;7.87;6.28;;;29.50;66.70;;;;;;10893077;32;20283;-71
2022/06/21 23:57:41;;;;;;;9.13;7.18;;;29.20;67.90;;;;;;10906146;32;20023;-70
